Obrien, California
Current Conditions -  °F | °C
As of 11:53 AM on Saturday 20 Dec 2014 (Local Time) from KRDD Reporting Station
Light Rain Light Rain  
Wind Chill: 53°   Ceiling: 800
Heat Index: 53°   Visibility: 5mi
Dew Point: 51°   Wind: 14mph
Humidity: 93%   Direction: 190°S
Pressure: 30.13"   Gusts: NA
Location:  40.82°N, 122.32°W
Report Text: KRDD 201953Z 19012KT 5SM -RA BR OVC008 12/11 A3013 RMK AO2 RAB1859E08B24 CIG 006V011 SLP201 P0002 T01170106
Loading
Personal Weather Stations






























Interactive Weather Map New forecast layout! Learn more

10-Day Weather Forecast

Advertisements
Track Severe Weather on mobile